sensor_id;sensor_type;location;lat;lon;timestamp;pressure;altitude;pressure_sealevel;temperature;humidity
65685;BME280;52405;50.844;-1.062;2022-08-04T00:00:15;101508.94;;;19.78;65.66
65685;BME280;52405;50.844;-1.062;2022-08-04T00:05:51;101541.47;;;19.81;65.52
65685;BME280;52405;50.844;-1.062;2022-08-04T00:08:47;101536.16;;;19.78;65.05
65685;BME280;52405;50.844;-1.062;2022-08-04T00:11:19;101537.88;;;19.75;64.65
65685;BME280;52405;50.844;-1.062;2022-08-04T00:13:51;101536.09;;;19.72;64.21
65685;BME280;52405;50.844;-1.062;2022-08-04T00:16:21;101510.41;;;19.57;63.96
65685;BME280;52405;50.844;-1.062;2022-08-04T00:18:57;101534.22;;;19.67;64.11
65685;BME280;52405;50.844;-1.062;2022-08-04T00:21:25;101539.50;;;19.63;64.24
65685;BME280;52405;50.844;-1.062;2022-08-04T00:23:53;101540.31;;;19.61;64.38
65685;BME280;52405;50.844;-1.062;2022-08-04T00:26:19;101537.63;;;19.55;63.21
65685;BME280;52405;50.844;-1.062;2022-08-04T00:28:46;101525.25;;;19.49;62.84
65685;BME280;52405;50.844;-1.062;2022-08-04T00:31:13;101535.88;;;19.55;62.60
65685;BME280;52405;50.844;-1.062;2022-08-04T00:33:43;101542.06;;;19.59;62.15
65685;BME280;52405;50.844;-1.062;2022-08-04T00:36:10;101545.59;;;19.61;61.77
65685;BME280;52405;50.844;-1.062;2022-08-04T00:38:36;101544.72;;;19.62;61.41
65685;BME280;52405;50.844;-1.062;2022-08-04T00:43:44;101519.16;;;19.50;61.18
65685;BME280;52405;50.844;-1.062;2022-08-04T00:46:25;101546.56;;;19.68;61.37
65685;BME280;52405;50.844;-1.062;2022-08-04T00:51:52;101517.50;;;19.61;61.25
65685;BME280;52405;50.844;-1.062;2022-08-04T00:54:32;101544.03;;;19.75;60.99
65685;BME280;52405;50.844;-1.062;2022-08-04T01:10:52;101545.13;;;19.94;60.58
65685;BME280;52405;50.844;-1.062;2022-08-04T01:14:14;101541.59;;;19.95;60.51
65685;BME280;52405;50.844;-1.062;2022-08-04T01:16:23;101542.47;;;19.96;60.09
65685;BME280;52405;50.844;-1.062;2022-08-04T01:19:09;101525.69;;;19.86;60.07
65685;BME280;52405;50.844;-1.062;2022-08-04T01:21:57;101534.63;;;20.00;60.23
65685;BME280;52405;50.844;-1.062;2022-08-04T01:27:17;101537.28;;;20.00;59.59
65685;BME280;52405;50.844;-1.062;2022-08-04T01:29:48;101534.63;;;20.00;59.62
65685;BME280;52405;50.844;-1.062;2022-08-04T01:32:27;101531.09;;;19.98;59.31
65685;BME280;52405;50.844;-1.062;2022-08-04T01:35:09;101530.19;;;19.95;59.52
65685;BME280;52405;50.844;-1.062;2022-08-04T01:37:52;101532.81;;;19.93;59.15
65685;BME280;52405;50.844;-1.062;2022-08-04T01:40:20;101531.88;;;19.90;59.14
65685;BME280;52405;50.844;-1.062;2022-08-04T01:42:48;101534.47;;;19.87;60.01
65685;BME280;52405;50.844;-1.062;2022-08-04T01:45:16;101537.94;;;19.81;59.48
65685;BME280;52405;50.844;-1.062;2022-08-04T01:47:49;101539.69;;;19.79;59.42
65685;BME280;52405;50.844;-1.062;2022-08-04T01:50:15;101529.00;;;19.70;59.12
65685;BME280;52405;50.844;-1.062;2022-08-04T01:52:42;101548.47;;;19.78;58.96
65685;BME280;52405;50.844;-1.062;2022-08-04T01:55:10;101535.16;;;19.70;58.75
65685;BME280;52405;50.844;-1.062;2022-08-04T01:57:40;101550.19;;;19.74;59.06
65685;BME280;52405;50.844;-1.062;2022-08-04T02:00:07;101539.66;;;19.74;59.40
65685;BME280;52405;50.844;-1.062;2022-08-04T02:02:33;101536.88;;;19.68;59.59
65685;BME280;52405;50.844;-1.062;2022-08-04T02:04:58;101540.50;;;19.73;59.73
65685;BME280;52405;50.844;-1.062;2022-08-04T02:10:03;101547.53;;;19.73;60.00
65685;BME280;52405;50.844;-1.062;2022-08-04T02:15:25;101533.34;;;19.66;60.24
65685;BME280;52405;50.844;-1.062;2022-08-04T02:18:31;101536.06;;;19.71;60.47
65685;BME280;52405;50.844;-1.062;2022-08-04T02:21:00;101513.94;;;19.56;60.50
65685;BME280;52405;50.844;-1.062;2022-08-04T02:23:46;101543.97;;;19.71;60.60
65685;BME280;52405;50.844;-1.062;2022-08-04T02:26:19;101550.16;;;19.73;60.86
65685;BME280;52405;50.844;-1.062;2022-08-04T02:34:21;101531.72;;;19.73;60.49
65685;BME280;52405;50.844;-1.062;2022-08-04T02:36:50;101536.94;;;19.71;60.26
65685;BME280;52405;50.844;-1.062;2022-08-04T02:39:19;101536.06;;;19.71;60.55
65685;BME280;52405;50.844;-1.062;2022-08-04T02:41:46;101526.34;;;19.65;60.77
65685;BME280;52405;50.844;-1.062;2022-08-04T02:44:13;101543.06;;;19.69;60.49
65685;BME280;52405;50.844;-1.062;2022-08-04T02:46:43;101542.13;;;19.67;60.73
65685;BME280;52405;50.844;-1.062;2022-08-04T02:49:10;101541.25;;;19.66;60.61
65685;BME280;52405;50.844;-1.062;2022-08-04T02:51:39;101528.94;;;19.62;60.83
65685;BME280;52405;50.844;-1.062;2022-08-04T02:54:05;101542.06;;;19.59;60.83
65685;BME280;52405;50.844;-1.062;2022-08-04T02:56:33;101544.69;;;19.56;61.37
65685;BME280;52405;50.844;-1.062;2022-08-04T02:59:00;101543.78;;;19.55;61.02
65685;BME280;52405;50.844;-1.062;2022-08-04T03:01:26;101540.25;;;19.53;61.10
65685;BME280;52405;50.844;-1.062;2022-08-04T03:07:23;101539.28;;;19.47;61.33
65685;BME280;52405;50.844;-1.062;2022-08-04T03:37:42;101552.56;;;18.88;63.34
65685;BME280;52405;50.844;-1.062;2022-08-04T04:14:12;101566.31;;;18.19;64.86
65685;BME280;52405;50.844;-1.062;2022-08-04T04:22:28;101561.63;;;18.02;65.27
65685;BME280;52405;50.844;-1.062;2022-08-04T04:42:05;101586.53;;;17.79;66.20
65685;BME280;52405;50.844;-1.062;2022-08-04T04:52:51;101600.38;;;17.68;66.52
65685;BME280;52405;50.844;-1.062;2022-08-04T04:55:25;101597.75;;;17.68;66.05
65685;BME280;52405;50.844;-1.062;2022-08-04T04:57:55;101596.81;;;17.68;66.38
65685;BME280;52405;50.844;-1.062;2022-08-04T05:00:36;101599.44;;;17.66;66.88
65685;BME280;52405;50.844;-1.062;2022-08-04T05:13:52;101603.91;;;17.70;67.22
65685;BME280;52405;50.844;-1.062;2022-08-04T05:16:26;101609.16;;;17.70;66.98
65685;BME280;52405;50.844;-1.062;2022-08-04T05:22:07;101618.03;;;17.76;66.57
65685;BME280;52405;50.844;-1.062;2022-08-04T05:24:39;101616.28;;;17.76;67.23
65685;BME280;52405;50.844;-1.062;2022-08-04T05:27:11;101616.34;;;17.81;66.39
65685;BME280;52405;50.844;-1.062;2022-08-04T05:29:48;101618.19;;;17.83;66.83
65685;BME280;52405;50.844;-1.062;2022-08-04T05:32:15;101624.41;;;17.87;67.16
65685;BME280;52405;50.844;-1.062;2022-08-04T05:34:52;101590.00;;;17.76;66.77
65685;BME280;52405;50.844;-1.062;2022-08-04T05:37:21;101627.19;;;17.95;66.60
65685;BME280;52405;50.844;-1.062;2022-08-04T05:39:55;101626.31;;;17.94;66.29
65685;BME280;52405;50.844;-1.062;2022-08-04T05:42:25;101594.59;;;17.85;66.23
65685;BME280;52405;50.844;-1.062;2022-08-04T05:44:51;101623.03;;;18.06;66.31
65685;BME280;52405;50.844;-1.062;2022-08-04T05:47:17;101577.13;;;17.87;66.28
65685;BME280;52405;50.844;-1.062;2022-08-04T05:49:46;101617.91;;;18.14;65.70
65685;BME280;52405;50.844;-1.062;2022-08-04T05:52:12;101612.63;;;18.12;66.10
65685;BME280;52405;50.844;-1.062;2022-08-04T05:54:40;101613.66;;;18.20;65.75
65685;BME280;52405;50.844;-1.062;2022-08-04T05:57:06;101619.88;;;18.24;66.20
65685;BME280;52405;50.844;-1.062;2022-08-04T05:59:36;101617.28;;;18.25;65.53
65685;BME280;52405;50.844;-1.062;2022-08-04T06:02:03;101618.28;;;18.34;65.49
65685;BME280;52405;50.844;-1.062;2022-08-04T06:04:36;101626.28;;;18.38;65.56
65685;BME280;52405;50.844;-1.062;2022-08-04T06:07:03;101614.94;;;18.42;65.38
65685;BME280;52405;50.844;-1.062;2022-08-04T06:09:29;101625.56;;;18.48;65.34
65685;BME280;52405;50.844;-1.062;2022-08-04T06:11:59;101607.97;;;18.46;64.95
65685;BME280;52405;50.844;-1.062;2022-08-04T06:14:25;101625.69;;;18.56;64.66
65685;BME280;52405;50.844;-1.062;2022-08-04T06:16:54;101622.34;;;18.66;64.94
65685;BME280;52405;50.844;-1.062;2022-08-04T06:19:21;101637.38;;;18.74;64.74
65685;BME280;52405;50.844;-1.062;2022-08-04T06:21:53;101632.22;;;18.80;64.36
65685;BME280;52405;50.844;-1.062;2022-08-04T06:24:23;101638.50;;;18.86;64.42
65685;BME280;52405;50.844;-1.062;2022-08-04T06:26:51;101643.91;;;18.96;63.72
65685;BME280;52405;50.844;-1.062;2022-08-04T06:29:20;101641.44;;;19.05;63.55
65685;BME280;52405;50.844;-1.062;2022-08-04T06:32:01;101641.56;;;19.14;63.30
65685;BME280;52405;50.844;-1.062;2022-08-04T06:34:37;101649.69;;;19.28;63.05
65685;BME280;52405;50.844;-1.062;2022-08-04T06:37:05;101653.56;;;19.55;63.02
65685;BME280;52405;50.844;-1.062;2022-08-04T06:39:31;101650.81;;;20.16;62.49
65685;BME280;52405;50.844;-1.062;2022-08-04T06:41:58;101655.16;;;20.99;61.32
65685;BME280;52405;50.844;-1.062;2022-08-04T06:44:25;101647.72;;;21.84;59.27
65685;BME280;52405;50.844;-1.062;2022-08-04T06:46:53;101659.41;;;22.83;56.83
65685;BME280;52405;50.844;-1.062;2022-08-04T06:49:20;101653.06;;;23.71;55.19
65685;BME280;52405;50.844;-1.062;2022-08-04T06:51:52;101634.06;;;24.49;52.76
65685;BME280;52405;50.844;-1.062;2022-08-04T06:54:19;101650.09;;;25.42;50.90
65685;BME280;52405;50.844;-1.062;2022-08-04T06:56:46;101648.19;;;26.25;48.82
65685;BME280;52405;50.844;-1.062;2022-08-04T06:59:15;101653.16;;;27.02;46.61
65685;BME280;52405;50.844;-1.062;2022-08-04T07:01:42;101651.78;;;27.73;44.38
65685;BME280;52405;50.844;-1.062;2022-08-04T07:04:09;101644.28;;;28.33;43.19
65685;BME280;52405;50.844;-1.062;2022-08-04T07:06:35;101649.03;;;28.93;41.77
65685;BME280;52405;50.844;-1.062;2022-08-04T07:09:00;101657.94;;;29.59;40.66
65685;BME280;52405;50.844;-1.062;2022-08-04T07:11:27;101654.47;;;30.15;38.73
65685;BME280;52405;50.844;-1.062;2022-08-04T07:13:53;101635.22;;;30.59;37.07
65685;BME280;52405;50.844;-1.062;2022-08-04T07:16:20;101656.38;;;31.20;36.23
65685;BME280;52405;50.844;-1.062;2022-08-04T07:18:46;101647.47;;;31.68;34.64
65685;BME280;52405;50.844;-1.062;2022-08-04T07:21:22;101647.41;;;32.17;33.78
65685;BME280;52405;50.844;-1.062;2022-08-04T07:23:49;101636.13;;;32.52;33.15
65685;BME280;52405;50.844;-1.062;2022-08-04T07:26:14;101643.13;;;32.78;31.35
65685;BME280;52405;50.844;-1.062;2022-08-04T07:28:41;101641.91;;;33.06;31.12
65685;BME280;52405;50.844;-1.062;2022-08-04T07:31:10;101650.53;;;33.34;31.02
65685;BME280;52405;50.844;-1.062;2022-08-04T07:33:37;101646.84;;;33.56;30.16
65685;BME280;52405;50.844;-1.062;2022-08-04T07:36:02;101640.66;;;33.54;30.59
65685;BME280;52405;50.844;-1.062;2022-08-04T07:38:28;101648.66;;;33.36;30.46
65685;BME280;52405;50.844;-1.062;2022-08-04T07:40:54;101634.97;;;33.41;30.18
65685;BME280;52405;50.844;-1.062;2022-08-04T07:43:20;101645.91;;;33.57;29.77
65685;BME280;52405;50.844;-1.062;2022-08-04T07:45:47;101632.94;;;33.46;29.66
65685;BME280;52405;50.844;-1.062;2022-08-04T07:48:12;101645.78;;;33.39;29.54
65685;BME280;52405;50.844;-1.062;2022-08-04T07:50:41;101628.72;;;33.59;29.75
65685;BME280;52405;50.844;-1.062;2022-08-04T07:53:08;101640.31;;;33.99;28.90
65685;BME280;52405;50.844;-1.062;2022-08-04T07:55:33;101626.94;;;33.79;28.32
65685;BME280;52405;50.844;-1.062;2022-08-04T07:57:59;101647.78;;;33.75;28.82
65685;BME280;52405;50.844;-1.062;2022-08-04T08:00:25;101633.66;;;33.50;28.95
65685;BME280;52405;50.844;-1.062;2022-08-04T08:02:52;101619.84;;;33.57;29.09
65685;BME280;52405;50.844;-1.062;2022-08-04T08:05:19;101640.78;;;33.90;28.66
65685;BME280;52405;50.844;-1.062;2022-08-04T08:07:49;101632.09;;;33.84;28.65
65685;BME280;52405;50.844;-1.062;2022-08-04T08:10:16;101635.25;;;33.35;28.40
65685;BME280;52405;50.844;-1.062;2022-08-04T08:12:42;101640.25;;;33.23;28.29
65685;BME280;52405;50.844;-1.062;2022-08-04T08:15:10;101624.91;;;33.45;28.46
65685;BME280;52405;50.844;-1.062;2022-08-04T08:17:37;101626.25;;;33.93;27.93
65685;BME280;52405;50.844;-1.062;2022-08-04T08:20:05;101625.84;;;34.21;27.55
65685;BME280;52405;50.844;-1.062;2022-08-04T08:22:31;101626.44;;;34.45;27.40
65685;BME280;52405;50.844;-1.062;2022-08-04T08:24:57;101598.41;;;34.30;26.59
65685;BME280;52405;50.844;-1.062;2022-08-04T08:27:23;101634.66;;;34.42;27.22
65685;BME280;52405;50.844;-1.062;2022-08-04T08:29:49;101627.94;;;34.51;26.81
65685;BME280;52405;50.844;-1.062;2022-08-04T08:32:14;101639.25;;;34.40;26.17
65685;BME280;52405;50.844;-1.062;2022-08-04T08:34:41;101642.53;;;33.91;26.38
65685;BME280;52405;50.844;-1.062;2022-08-04T08:37:25;101638.22;;;33.68;27.01
65685;BME280;52405;50.844;-1.062;2022-08-04T08:42:46;101639.78;;;33.53;26.97
65685;BME280;52405;50.844;-1.062;2022-08-04T08:56:42;101633.44;;;33.35;26.98
65685;BME280;52405;50.844;-1.062;2022-08-04T09:05:00;101635.63;;;33.46;27.15
65685;BME280;52405;50.844;-1.062;2022-08-04T09:12:51;101640.81;;;33.10;28.13
65685;BME280;52405;50.844;-1.062;2022-08-04T09:15:28;101637.50;;;33.25;27.78
65685;BME280;52405;50.844;-1.062;2022-08-04T09:18:03;101632.19;;;33.23;28.09
65685;BME280;52405;50.844;-1.062;2022-08-04T09:20:36;101640.84;;;32.89;27.98
65685;BME280;52405;50.844;-1.062;2022-08-04T09:29:04;101639.25;;;31.73;28.91
65685;BME280;52405;50.844;-1.062;2022-08-04T09:31:42;101646.91;;;31.84;28.64
65685;BME280;52405;50.844;-1.062;2022-08-04T09:34:22;101649.44;;;32.11;28.76
65685;BME280;52405;50.844;-1.062;2022-08-04T09:37:16;101640.41;;;32.35;28.46
65685;BME280;52405;50.844;-1.062;2022-08-04T09:42:27;101642.31;;;32.54;28.21
65685;BME280;52405;50.844;-1.062;2022-08-04T09:45:18;101633.16;;;32.59;27.69
65685;BME280;52405;50.844;-1.062;2022-08-04T09:50:41;101645.88;;;32.54;28.35
65685;BME280;52405;50.844;-1.062;2022-08-04T09:56:38;101647.59;;;31.65;28.65
65685;BME280;52405;50.844;-1.062;2022-08-04T10:01:43;101635.03;;;31.89;28.86
65685;BME280;52405;50.844;-1.062;2022-08-04T10:04:12;101647.13;;;32.23;28.75
65685;BME280;52405;50.844;-1.062;2022-08-04T10:12:40;101649.50;;;32.75;26.52
65685;BME280;52405;50.844;-1.062;2022-08-04T10:15:12;101622.75;;;32.50;26.88
65685;BME280;52405;50.844;-1.062;2022-08-04T10:25:48;101659.88;;;30.97;28.62
65685;BME280;52405;50.844;-1.062;2022-08-04T10:28:20;101656.63;;;30.61;30.05
65685;BME280;52405;50.844;-1.062;2022-08-04T10:31:08;101644.06;;;30.34;29.85
65685;BME280;52405;50.844;-1.062;2022-08-04T10:37:05;101654.41;;;30.47;29.28
65685;BME280;52405;50.844;-1.062;2022-08-04T10:39:45;101649.56;;;30.58;30.29
65685;BME280;52405;50.844;-1.062;2022-08-04T10:42:35;101651.78;;;30.72;28.57
65685;BME280;52405;50.844;-1.062;2022-08-04T10:45:17;101638.28;;;30.48;29.47
65685;BME280;52405;50.844;-1.062;2022-08-04T10:48:11;101650.38;;;30.60;29.70
65685;BME280;52405;50.844;-1.062;2022-08-04T10:50:48;101649.09;;;30.72;29.47
65685;BME280;52405;50.844;-1.062;2022-08-04T10:53:19;101647.97;;;30.79;29.58
65685;BME280;52405;50.844;-1.062;2022-08-04T10:56:00;101648.50;;;30.89;28.89
65685;BME280;52405;50.844;-1.062;2022-08-04T10:58:34;101650.59;;;30.81;28.42
65685;BME280;52405;50.844;-1.062;2022-08-04T11:01:07;101650.06;;;30.43;27.64
65685;BME280;52405;50.844;-1.062;2022-08-04T11:03:55;101651.81;;;30.15;28.91
65685;BME280;52405;50.844;-1.062;2022-08-04T11:06:22;101656.81;;;30.26;29.31
65685;BME280;52405;50.844;-1.062;2022-08-04T11:08:51;101645.75;;;30.39;29.63
65685;BME280;52405;50.844;-1.062;2022-08-04T11:16:26;101638.63;;;30.91;28.65
65685;BME280;52405;50.844;-1.062;2022-08-04T11:21:55;101644.81;;;30.93;28.25
65685;BME280;52405;50.844;-1.062;2022-08-04T11:24:30;101649.38;;;30.64;28.73
65685;BME280;52405;50.844;-1.062;2022-08-04T11:27:03;101638.88;;;30.28;28.64
65685;BME280;52405;50.844;-1.062;2022-08-04T11:29:47;101655.59;;;30.08;29.13
65685;BME280;52405;50.844;-1.062;2022-08-04T11:34:59;101665.41;;;29.79;29.02
65685;BME280;52405;50.844;-1.062;2022-08-04T11:37:41;101661.44;;;29.62;29.86
65685;BME280;52405;50.844;-1.062;2022-08-04T11:40:22;101646.41;;;29.57;30.16
65685;BME280;52405;50.844;-1.062;2022-08-04T11:42:55;101656.31;;;29.85;30.39
65685;BME280;52405;50.844;-1.062;2022-08-04T11:45:37;101659.44;;;29.99;30.48
65685;BME280;52405;50.844;-1.062;2022-08-04T11:48:09;101651.41;;;29.99;30.25
65685;BME280;52405;50.844;-1.062;2022-08-04T11:50:49;101639.75;;;30.01;30.31
65685;BME280;52405;50.844;-1.062;2022-08-04T11:53:20;101618.63;;;29.91;28.86
65685;BME280;52405;50.844;-1.062;2022-08-04T11:55:50;101601.81;;;29.86;29.76
65685;BME280;52405;50.844;-1.062;2022-08-04T11:58:17;101637.34;;;30.21;28.87
65685;BME280;52405;50.844;-1.062;2022-08-04T12:01:10;101646.31;;;30.20;27.92
65685;BME280;52405;50.844;-1.062;2022-08-04T12:03:56;101638.25;;;29.92;28.93
65685;BME280;52405;50.844;-1.062;2022-08-04T12:06:29;101639.19;;;29.59;30.12
65685;BME280;52405;50.844;-1.062;2022-08-04T12:12:23;101644.91;;;29.47;29.55
65685;BME280;52405;50.844;-1.062;2022-08-04T12:18:06;101642.78;;;29.27;30.52
65685;BME280;52405;50.844;-1.062;2022-08-04T12:20:41;101643.16;;;29.13;29.29
65685;BME280;52405;50.844;-1.062;2022-08-04T12:23:14;101629.53;;;28.88;29.75
65685;BME280;52405;50.844;-1.062;2022-08-04T12:25:46;101641.41;;;28.76;29.95
65685;BME280;52405;50.844;-1.062;2022-08-04T12:28:23;101649.84;;;28.61;29.93
65685;BME280;52405;50.844;-1.062;2022-08-04T12:31:13;101621.03;;;28.36;30.41
65685;BME280;52405;50.844;-1.062;2022-08-04T12:39:21;101650.78;;;28.19;31.68
65685;BME280;52405;50.844;-1.062;2022-08-04T12:42:12;101636.34;;;28.28;32.03
65685;BME280;52405;50.844;-1.062;2022-08-04T12:44:41;101637.09;;;28.35;31.45
65685;BME280;52405;50.844;-1.062;2022-08-04T12:47:10;101636.06;;;28.40;31.50
65685;BME280;52405;50.844;-1.062;2022-08-04T12:49:38;101636.97;;;28.39;31.63
65685;BME280;52405;50.844;-1.062;2022-08-04T12:52:07;101645.91;;;28.38;31.89
65685;BME280;52405;50.844;-1.062;2022-08-04T12:54:34;101641.75;;;28.25;31.04
65685;BME280;52405;50.844;-1.062;2022-08-04T12:57:04;101644.84;;;28.06;30.82
65685;BME280;52405;50.844;-1.062;2022-08-04T12:59:42;101651.47;;;27.88;30.86
65685;BME280;52405;50.844;-1.062;2022-08-04T13:02:13;101642.84;;;27.76;31.19
65685;BME280;52405;50.844;-1.062;2022-08-04T13:04:42;101634.94;;;27.69;31.83
65685;BME280;52405;50.844;-1.062;2022-08-04T13:07:22;101642.72;;;27.80;31.85
65685;BME280;52405;50.844;-1.062;2022-08-04T13:09:49;101638.03;;;27.93;30.02
65685;BME280;52405;50.844;-1.062;2022-08-04T13:12:23;101630.56;;;28.09;29.92
65685;BME280;52405;50.844;-1.062;2022-08-04T13:14:52;101629.28;;;28.27;30.10
65685;BME280;52405;50.844;-1.062;2022-08-04T13:17:18;101625.41;;;28.39;30.74
65685;BME280;52405;50.844;-1.062;2022-08-04T13:19:48;101628.75;;;28.47;31.63
65685;BME280;52405;50.844;-1.062;2022-08-04T13:22:26;101634.00;;;28.53;32.07
65685;BME280;52405;50.844;-1.062;2022-08-04T13:24:56;101630.53;;;28.48;32.08
65685;BME280;52405;50.844;-1.062;2022-08-04T13:27:23;101632.63;;;28.35;31.62
65685;BME280;52405;50.844;-1.062;2022-08-04T13:29:51;101632.91;;;28.23;31.50
65685;BME280;52405;50.844;-1.062;2022-08-04T13:32:21;101639.50;;;28.06;31.26
65685;BME280;52405;50.844;-1.062;2022-08-04T13:34:49;101639.72;;;27.97;31.85
65685;BME280;52405;50.844;-1.062;2022-08-04T13:37:17;101639.81;;;27.94;31.95
65685;BME280;52405;50.844;-1.062;2022-08-04T13:39:45;101646.00;;;27.96;31.31
65685;BME280;52405;50.844;-1.062;2022-08-04T13:42:13;101634.50;;;27.93;31.13
65685;BME280;52405;50.844;-1.062;2022-08-04T13:44:43;101641.69;;;27.87;31.03
65685;BME280;52405;50.844;-1.062;2022-08-04T13:47:22;101627.75;;;27.73;31.97
65685;BME280;52405;50.844;-1.062;2022-08-04T13:52:33;101621.56;;;27.73;31.54
65685;BME280;52405;50.844;-1.062;2022-08-04T13:54:59;101619.41;;;27.90;30.32
65685;BME280;52405;50.844;-1.062;2022-08-04T13:57:30;101607.66;;;27.99;30.21
65685;BME280;52405;50.844;-1.062;2022-08-04T14:00:03;101620.69;;;28.13;29.97
65685;BME280;52405;50.844;-1.062;2022-08-04T14:02:31;101620.59;;;28.16;30.28
65685;BME280;52405;50.844;-1.062;2022-08-04T14:05:03;101609.22;;;28.09;30.10
65685;BME280;52405;50.844;-1.062;2022-08-04T14:07:30;101624.16;;;28.18;30.23
65685;BME280;52405;50.844;-1.062;2022-08-04T14:09:57;101614.56;;;28.07;30.32
65685;BME280;52405;50.844;-1.062;2022-08-04T14:12:23;101621.59;;;28.12;30.24
65685;BME280;52405;50.844;-1.062;2022-08-04T14:14:51;101616.22;;;28.13;30.66
65685;BME280;52405;50.844;-1.062;2022-08-04T14:17:22;101621.28;;;28.25;30.43
65685;BME280;52405;50.844;-1.062;2022-08-04T14:20:00;101613.03;;;28.36;30.02
65685;BME280;52405;50.844;-1.062;2022-08-04T14:25:15;101603.28;;;28.32;30.01
65685;BME280;52405;50.844;-1.062;2022-08-04T14:27:42;101597.47;;;28.16;29.80
65685;BME280;52405;50.844;-1.062;2022-08-04T14:30:23;101597.72;;;28.05;30.50
65685;BME280;52405;50.844;-1.062;2022-08-04T14:35:25;101597.41;;;27.77;29.76
65685;BME280;52405;50.844;-1.062;2022-08-04T14:37:59;101593.25;;;27.65;29.78
65685;BME280;52405;50.844;-1.062;2022-08-04T14:40:28;101605.75;;;27.63;29.94
65685;BME280;52405;50.844;-1.062;2022-08-04T14:42:54;101606.84;;;27.53;30.22
65685;BME280;52405;50.844;-1.062;2022-08-04T14:45:46;101606.28;;;27.37;29.73
65685;BME280;52405;50.844;-1.062;2022-08-04T14:48:16;101601.19;;;27.23;30.33
65685;BME280;52405;50.844;-1.062;2022-08-04T14:50:47;101597.84;;;27.14;30.28
65685;BME280;52405;50.844;-1.062;2022-08-04T14:55:50;101553.13;;;26.80;30.87
65685;BME280;52405;50.844;-1.062;2022-08-04T14:58:23;101607.69;;;27.10;31.67
65685;BME280;52405;50.844;-1.062;2022-08-04T15:00:52;101607.50;;;27.19;31.07
65685;BME280;52405;50.844;-1.062;2022-08-04T15:03:19;101606.53;;;27.23;30.87
65685;BME280;52405;50.844;-1.062;2022-08-04T15:05:46;101591.53;;;27.18;31.61
65685;BME280;52405;50.844;-1.062;2022-08-04T15:08:12;101618.81;;;27.34;31.23
65685;BME280;52405;50.844;-1.062;2022-08-04T15:10:39;101612.63;;;27.32;30.53
65685;BME280;52405;50.844;-1.062;2022-08-04T15:13:06;101623.31;;;27.32;30.49
65685;BME280;52405;50.844;-1.062;2022-08-04T15:15:32;101628.63;;;27.32;30.47
65685;BME280;52405;50.844;-1.062;2022-08-04T15:17:58;101612.69;;;27.28;30.41
65685;BME280;52405;50.844;-1.062;2022-08-04T15:20:23;101612.78;;;27.22;30.51
65685;BME280;52405;50.844;-1.062;2022-08-04T15:22:49;101618.97;;;27.23;30.84
65685;BME280;52405;50.844;-1.062;2022-08-04T15:25:15;101622.63;;;27.19;30.71
65685;BME280;52405;50.844;-1.062;2022-08-04T15:27:42;101623.50;;;27.19;30.95
65685;BME280;52405;50.844;-1.062;2022-08-04T15:30:11;101617.34;;;27.16;30.01
65685;BME280;52405;50.844;-1.062;2022-08-04T15:32:42;101567.25;;;26.86;30.33
65685;BME280;52405;50.844;-1.062;2022-08-04T15:35:18;101612.16;;;27.08;29.99
65685;BME280;52405;50.844;-1.062;2022-08-04T15:40:36;101613.06;;;27.07;30.47
65685;BME280;52405;50.844;-1.062;2022-08-04T15:45:50;101616.63;;;27.07;30.33
65685;BME280;52405;50.844;-1.062;2022-08-04T15:53:25;101614.09;;;26.98;30.01
65685;BME280;52405;50.844;-1.062;2022-08-04T15:55:51;101609.00;;;26.87;30.33
65685;BME280;52405;50.844;-1.062;2022-08-04T15:58:18;101627.66;;;26.87;30.88
65685;BME280;52405;50.844;-1.062;2022-08-04T16:16:44;101624.63;;;26.54;30.86
65685;BME280;52405;50.844;-1.062;2022-08-04T16:19:51;101638.81;;;26.55;30.08
65685;BME280;52405;50.844;-1.062;2022-08-04T16:22:39;101655.06;;;26.40;30.57
65685;BME280;52405;50.844;-1.062;2022-08-04T16:25:06;101640.22;;;26.23;30.75
65685;BME280;52405;50.844;-1.062;2022-08-04T16:27:42;101654.50;;;26.18;30.41
65685;BME280;52405;50.844;-1.062;2022-08-04T16:30:11;101660.75;;;26.13;30.96
65685;BME280;52405;50.844;-1.062;2022-08-04T16:32:42;101643.13;;;26.05;30.83
65685;BME280;52405;50.844;-1.062;2022-08-04T16:35:27;101661.66;;;26.14;31.66
65685;BME280;52405;50.844;-1.062;2022-08-04T16:38:12;101669.66;;;26.12;30.35
65685;BME280;52405;50.844;-1.062;2022-08-04T16:40:40;101663.47;;;26.10;30.73
65685;BME280;52405;50.844;-1.062;2022-08-04T16:43:15;101665.22;;;26.11;31.09
65685;BME280;52405;50.844;-1.062;2022-08-04T16:45:56;101663.47;;;26.10;31.04
65685;BME280;52405;50.844;-1.062;2022-08-04T16:48:29;101672.44;;;26.03;30.35
65685;BME280;52405;50.844;-1.062;2022-08-04T16:51:06;101675.22;;;25.94;31.21
65685;BME280;52405;50.844;-1.062;2022-08-04T16:53:43;101666.41;;;25.86;30.99
65685;BME280;52405;50.844;-1.062;2022-08-04T16:56:11;101674.50;;;25.78;30.91
65685;BME280;52405;50.844;-1.062;2022-08-04T16:58:39;101672.81;;;25.71;31.17
65685;BME280;52405;50.844;-1.062;2022-08-04T17:01:07;101673.75;;;25.65;31.62
65685;BME280;52405;50.844;-1.062;2022-08-04T17:03:35;101678.25;;;25.62;31.39
65685;BME280;52405;50.844;-1.062;2022-08-04T17:06:18;101675.56;;;25.63;31.63
65685;BME280;52405;50.844;-1.062;2022-08-04T17:08:46;101673.78;;;25.62;31.81
65685;BME280;52405;50.844;-1.062;2022-08-04T17:11:13;101677.38;;;25.61;31.33
65685;BME280;52405;50.844;-1.062;2022-08-04T17:13:41;101675.66;;;25.55;31.97
65685;BME280;52405;50.844;-1.062;2022-08-04T17:16:10;101678.34;;;25.54;31.91
65685;BME280;52405;50.844;-1.062;2022-08-04T17:18:39;101672.19;;;25.49;31.14
65685;BME280;52405;50.844;-1.062;2022-08-04T17:21:09;101673.97;;;25.47;31.78
65685;BME280;52405;50.844;-1.062;2022-08-04T17:26:10;101665.16;;;25.42;31.93
65685;BME280;52405;50.844;-1.062;2022-08-04T17:28:38;101668.84;;;25.31;32.33
65685;BME280;52405;50.844;-1.062;2022-08-04T17:31:06;101670.56;;;25.32;32.83